Time;durP1;ratioP1;P1;durP2;ratioP2;P2;SDS_P1;SDS_P2;PMS_P1;PMS_P2;Temp;Humidity;BMP_temperature;BMP_pressure;BME280_temperature;BME280_humidity;BME280_pressure;Samples;Min_cycle;Max_cycle;Signal;HPM_P1;HPM_P2
2023/07/09 00:02:21;;;;;;;2.25;2.05;;;17.40;34.70;;;;;;5018671;28;20743;-55
2023/07/09 00:04:48;;;;;;;2.60;2.00;;;17.30;36.60;;;;;;5020174;28;20025;-50
2023/07/09 00:07:29;;;;;;;7.20;2.67;;;17.20;37.70;;;;;;5022737;28;20022;-51
2023/07/09 00:09:55;;;;;;;3.20;2.33;;;17.10;38.80;;;;;;5015011;28;20034;-53
2023/07/09 00:12:21;;;;;;;2.90;2.58;;;17.00;40.50;;;;;;5028503;28;20038;-52
2023/07/09 00:14:47;;;;;;;4.55;2.08;;;16.90;41.50;;;;;;5027418;28;20025;-51
2023/07/09 00:17:25;;;;;;;5.85;2.33;;;16.90;42.20;;;;;;5042426;28;20033;-50
2023/07/09 00:19:51;;;;;;;3.50;2.28;;;16.90;42.80;;;;;;5016258;28;20036;-53
2023/07/09 00:22:19;;;;;;;4.25;2.20;;;16.80;42.70;;;;;;5025733;28;20026;-54
2023/07/09 00:24:50;;;;;;;2.65;1.95;;;16.80;43.00;;;;;;5042730;28;20037;-53
2023/07/09 00:27:19;;;;;;;3.42;1.85;;;16.80;43.40;;;;;;5024319;28;20734;-55
2023/07/09 00:29:44;;;;;;;2.15;1.73;;;16.70;44.30;;;;;;5038296;28;20045;-54
2023/07/09 00:32:20;;;;;;;4.97;2.28;;;16.60;45.20;;;;;;5039779;28;20056;-58
2023/07/09 00:34:49;;;;;;;3.40;2.00;;;16.60;48.50;;;;;;5034345;28;20431;-58
2023/07/09 00:37:21;;;;;;;3.10;1.70;;;16.50;49.00;;;;;;5034432;28;20043;-56
2023/07/09 00:39:48;;;;;;;3.90;2.08;;;16.50;49.70;;;;;;5043515;28;20020;-57
2023/07/09 00:42:17;;;;;;;4.57;2.35;;;16.40;50.60;;;;;;5030673;28;20068;-58
2023/07/09 00:44:45;;;;;;;2.60;2.17;;;16.40;51.30;;;;;;5041297;28;20040;-56
2023/07/09 00:47:43;;;;;;;4.07;2.20;;;16.30;51.90;;;;;;5039080;28;20034;-56
2023/07/09 00:50:16;;;;;;;2.83;2.10;;;16.30;54.70;;;;;;5026570;28;20634;-58
2023/07/09 00:53:07;;;;;;;3.72;2.03;;;16.20;55.10;;;;;;5024647;28;20029;-58
2023/07/09 00:55:37;;;;;;;3.88;2.38;;;16.10;59.60;;;;;;5035704;28;20064;-57
2023/07/09 00:58:07;;;;;;;4.10;2.30;;;16.10;59.60;;;;;;5025459;28;20514;-54
2023/07/09 01:00:47;;;;;;;4.13;2.35;;;16.00;59.70;;;;;;5032987;28;20025;-59
2023/07/09 01:03:42;;;;;;;3.33;2.10;;;16.00;63.90;;;;;;5011092;28;20032;-58
2023/07/09 01:06:09;;;;;;;5.55;2.65;;;16.00;67.10;;;;;;5010893;28;20445;-56
2023/07/09 01:08:38;;;;;;;3.97;2.33;;;15.90;66.70;;;;;;5048706;28;20068;-56
2023/07/09 01:11:03;;;;;;;4.15;2.53;;;16.00;66.10;;;;;;5052364;28;20074;-56
2023/07/09 01:13:32;;;;;;;5.03;2.60;;;15.90;67.20;;;;;;5031817;28;20022;-59
2023/07/09 01:15:59;;;;;;;3.92;1.92;;;15.90;68.00;;;;;;5051936;28;20079;-57
2023/07/09 01:18:25;;;;;;;3.55;2.53;;;15.90;68.00;;;;;;5031143;28;20045;-57
2023/07/09 01:20:55;;;;;;;2.78;2.08;;;15.90;69.60;;;;;;5050819;28;20435;-57
2023/07/09 01:23:22;;;;;;;3.38;2.30;;;15.90;69.50;;;;;;5010663;28;20245;-58
2023/07/09 01:25:54;;;;;;;2.67;1.88;;;15.90;68.90;;;;;;5051782;28;20078;-56
2023/07/09 01:28:20;;;;;;;5.25;2.55;;;15.90;69.40;;;;;;5010290;28;20033;-58
2023/07/09 01:30:46;;;;;;;3.42;2.20;;;15.80;72.30;;;;;;5029991;28;20160;-56
2023/07/09 01:33:11;;;;;;;3.80;2.80;;;15.90;73.60;;;;;;5050788;28;20044;-56
2023/07/09 01:35:41;;;;;;;5.28;2.78;;;15.80;73.10;;;;;;5030547;28;20029;-56
2023/07/09 01:38:07;;;;;;;3.75;2.47;;;15.90;73.60;;;;;;5051419;28;20071;-58
2023/07/09 01:40:33;;;;;;;4.18;2.22;;;15.90;71.60;;;;;;5048459;28;20037;-59
2023/07/09 01:43:01;;;;;;;4.50;2.35;;;15.90;72.30;;;;;;5051214;28;20396;-56
2023/07/09 01:45:27;;;;;;;4.10;2.63;;;16.00;70.30;;;;;;5029743;28;20029;-58
2023/07/09 01:47:55;;;;;;;3.78;2.08;;;16.00;70.80;;;;;;5030537;28;20030;-59
2023/07/09 01:50:21;;;;;;;2.22;2.03;;;16.10;71.20;;;;;;5032556;28;20029;-57
2023/07/09 01:52:49;;;;;;;3.58;2.70;;;16.10;74.00;;;;;;5050447;28;20032;-57
2023/07/09 01:55:16;;;;;;;3.80;2.70;;;16.10;73.20;;;;;;5029730;28;20033;-57
2023/07/09 01:57:42;;;;;;;7.55;2.55;;;16.10;70.70;;;;;;5050691;28;20033;-58
2023/07/09 02:00:13;;;;;;;5.93;2.80;;;16.20;71.20;;;;;;5029725;28;20124;-58
2023/07/09 02:02:42;;;;;;;3.03;2.35;;;16.10;72.80;;;;;;5031005;28;20034;-54
2023/07/09 02:05:09;;;;;;;3.78;2.35;;;16.00;73.20;;;;;;5038760;28;20166;-57
2023/07/09 02:07:34;;;;;;;3.35;2.60;;;16.00;72.40;;;;;;5051160;28;20017;-58
2023/07/09 02:10:00;;;;;;;4.75;2.67;;;16.00;73.20;;;;;;5043505;28;20048;-57
2023/07/09 02:12:26;;;;;;;3.72;2.55;;;15.90;76.50;;;;;;5050793;28;20039;-58
2023/07/09 02:14:51;;;;;;;4.63;2.40;;;15.80;75.30;;;;;;5029244;28;20224;-56
2023/07/09 02:17:17;;;;;;;4.28;2.67;;;15.80;75.80;;;;;;5050201;28;20033;-57
2023/07/09 02:19:43;;;;;;;5.05;2.63;;;15.80;74.60;;;;;;5029412;28;20026;-59
2023/07/09 02:22:09;;;;;;;2.72;2.40;;;15.80;74.70;;;;;;5050259;28;20025;-58
2023/07/09 02:24:36;;;;;;;4.85;2.58;;;15.80;75.60;;;;;;5039565;28;20029;-59
2023/07/09 02:27:04;;;;;;;4.03;2.60;;;15.80;77.00;;;;;;5030888;28;20030;-56
2023/07/09 02:29:31;;;;;;;4.95;2.65;;;15.70;76.30;;;;;;5048224;28;20040;-58
2023/07/09 02:31:59;;;;;;;3.45;1.90;;;15.70;76.50;;;;;;5029562;28;20056;-57
2023/07/09 02:34:25;;;;;;;5.13;2.58;;;15.60;76.30;;;;;;5048105;28;20041;-57
2023/07/09 02:36:55;;;;;;;3.83;2.65;;;15.60;75.90;;;;;;5030852;28;20022;-57
2023/07/09 02:39:22;;;;;;;2.38;2.17;;;15.50;77.30;;;;;;5048159;28;20096;-58
2023/07/09 02:41:48;;;;;;;4.05;2.70;;;15.50;79.00;;;;;;5030594;28;20036;-57
2023/07/09 02:44:14;;;;;;;2.92;2.30;;;15.50;79.40;;;;;;5047152;28;20041;-58
2023/07/09 02:46:39;;;;;;;3.75;2.80;;;15.40;81.10;;;;;;5048051;28;20029;-55
2023/07/09 02:49:06;;;;;;;4.65;2.63;;;15.40;82.50;;;;;;5034520;28;20030;-58
2023/07/09 02:51:33;;;;;;;6.70;3.78;;;15.40;83.10;;;;;;5049421;28;20111;-58
2023/07/09 02:54:00;;;;;;;3.83;2.70;;;15.30;83.20;;;;;;5029372;28;22845;-57
2023/07/09 02:56:26;;;;;;;4.25;3.17;;;15.30;82.30;;;;;;5030905;28;20036;-56
2023/07/09 02:58:52;;;;;;;3.58;2.53;;;15.30;81.10;;;;;;5049047;28;20025;-59
2023/07/09 03:01:21;;;;;;;3.38;3.03;;;15.30;80.40;;;;;;5033524;28;20036;-58
2023/07/09 03:03:47;;;;;;;2.42;2.22;;;15.30;80.10;;;;;;5050018;28;20106;-57
2023/07/09 03:06:12;;;;;;;2.92;2.22;;;15.30;80.80;;;;;;5022204;28;20060;-59
2023/07/09 03:08:38;;;;;;;5.55;2.40;;;15.30;82.80;;;;;;5049170;28;20048;-57
2023/07/09 03:11:11;;;;;;;2.72;2.20;;;15.20;83.50;;;;;;5034942;28;20024;-55
2023/07/09 03:13:37;;;;;;;2.67;2.22;;;15.20;82.70;;;;;;5045659;28;20095;-56
2023/07/09 03:16:03;;;;;;;2.92;2.42;;;15.30;82.20;;;;;;5049457;28;20544;-57
2023/07/09 03:18:28;;;;;;;2.50;2.08;;;15.20;81.70;;;;;;5034563;28;20047;-58
2023/07/09 03:20:53;;;;;;;3.05;2.22;;;15.20;82.50;;;;;;5038324;28;20040;-58
2023/07/09 03:23:19;;;;;;;2.88;2.35;;;15.20;84.50;;;;;;5030298;28;20065;-56
2023/07/09 03:25:45;;;;;;;2.95;2.53;;;15.20;85.70;;;;;;5040794;28;20021;-58
2023/07/09 03:28:12;;;;;;;4.97;2.75;;;15.20;85.60;;;;;;5048910;28;20032;-55
2023/07/09 03:30:41;;;;;;;7.38;3.13;;;15.30;84.40;;;;;;5032086;28;20044;-56
2023/07/09 03:33:07;;;;;;;4.47;2.42;;;15.30;83.90;;;;;;5046169;28;20031;-56
2023/07/09 03:35:34;;;;;;;3.50;2.70;;;15.30;83.70;;;;;;5029775;28;20117;-58
2023/07/09 03:38:00;;;;;;;3.55;2.60;;;15.40;84.30;;;;;;5049135;28;20028;-57
2023/07/09 03:40:25;;;;;;;5.20;2.53;;;15.40;86.30;;;;;;5028146;28;20395;-57
2023/07/09 03:42:51;;;;;;;3.85;2.80;;;15.60;86.60;;;;;;5021392;28;20440;-56
2023/07/09 03:45:16;;;;;;;4.07;2.70;;;15.90;85.80;;;;;;5048572;28;20031;-57
2023/07/09 03:47:42;;;;;;;4.80;2.78;;;16.50;84.90;;;;;;5028349;28;20489;-58
2023/07/09 03:50:09;;;;;;;2.97;2.28;;;17.00;82.40;;;;;;5034308;28;20061;-59
2023/07/09 03:52:35;;;;;;;3.28;2.63;;;17.60;79.80;;;;;;5048614;28;20036;-58
2023/07/09 03:55:04;;;;;;;3.90;2.88;;;18.20;77.40;;;;;;5028172;28;20485;-57
2023/07/09 03:57:30;;;;;;;2.67;2.28;;;18.70;75.00;;;;;;5047490;28;20028;-57
2023/07/09 03:59:56;;;;;;;8.00;3.05;;;19.20;73.10;;;;;;5038183;28;20500;-57
2023/07/09 04:02:22;;;;;;;3.45;2.60;;;19.80;71.20;;;;;;5046866;28;20090;-56
2023/07/09 04:04:48;;;;;;;3.85;2.33;;;20.30;69.50;;;;;;5022725;28;20481;-56
2023/07/09 04:07:15;;;;;;;3.22;2.35;;;20.90;67.50;;;;;;5049125;28;20020;-56
2023/07/09 04:09:40;;;;;;;3.13;2.67;;;21.40;65.70;;;;;;5026083;28;20045;-57
2023/07/09 04:12:07;;;;;;;5.82;2.97;;;21.80;63.50;;;;;;5046861;28;20032;-56
2023/07/09 04:14:32;;;;;;;2.72;2.20;;;22.30;62.60;;;;;;5037555;28;20171;-58
2023/07/09 04:16:58;;;;;;;3.47;2.30;;;22.80;61.40;;;;;;5029432;28;20120;-56
2023/07/09 04:19:24;;;;;;;2.40;2.20;;;23.20;59.40;;;;;;5046553;28;20033;-57
2023/07/09 04:21:50;;;;;;;3.92;2.28;;;23.70;57.40;;;;;;5029222;28;20029;-57
2023/07/09 04:24:19;;;;;;;2.42;2.22;;;24.20;55.60;;;;;;5046326;28;20029;-56
2023/07/09 04:26:46;;;;;;;2.90;2.20;;;24.70;53.90;;;;;;5029377;28;20033;-57
2023/07/09 04:29:12;;;;;;;2.70;2.30;;;25.10;51.50;;;;;;5046233;28;20041;-56
2023/07/09 04:31:39;;;;;;;3.03;2.28;;;25.50;49.30;;;;;;5047503;28;20031;-55
2023/07/09 04:34:05;;;;;;;2.47;2.08;;;25.90;47.40;;;;;;5033460;28;20420;-56
2023/07/09 04:36:31;;;;;;;2.15;1.95;;;26.30;45.60;;;;;;5048754;28;20501;-58
2023/07/09 04:38:57;;;;;;;5.03;2.40;;;26.90;44.30;;;;;;5030906;28;20029;-57
2023/07/09 04:41:22;;;;;;;2.72;2.40;;;27.30;41.50;;;;;;5048605;28;20087;-58
2023/07/09 04:43:48;;;;;;;5.22;2.30;;;27.70;40.10;;;;;;5031213;28;20100;-57
2023/07/09 04:46:13;;;;;;;3.03;2.30;;;28.20;38.50;;;;;;5048758;28;20385;-57
2023/07/09 04:48:39;;;;;;;2.85;2.55;;;28.40;35.80;;;;;;5029694;28;20037;-57
2023/07/09 04:51:04;;;;;;;3.20;2.22;;;28.90;33.90;;;;;;5048733;28;20057;-59
2023/07/09 04:53:30;;;;;;;2.80;2.20;;;29.40;32.00;;;;;;5028577;28;20158;-59
2023/07/09 04:55:56;;;;;;;2.13;1.92;;;29.70;30.70;;;;;;5048765;28;20028;-58
2023/07/09 04:58:22;;;;;;;4.30;2.35;;;30.00;29.10;;;;;;5027430;28;20390;-58
2023/07/09 05:00:50;;;;;;;2.60;2.40;;;30.20;27.00;;;;;;5048717;28;20047;-58
2023/07/09 05:03:16;;;;;;;2.55;2.08;;;30.60;26.10;;;;;;5028920;28;20036;-58
2023/07/09 05:05:45;;;;;;;2.78;2.10;;;30.90;23.30;;;;;;5034900;28;20026;-58
2023/07/09 05:08:13;;;;;;;2.10;1.90;;;31.20;20.40;;;;;;5051695;28;20434;-58
2023/07/09 05:10:43;;;;;;;3.47;2.15;;;31.40;21.40;;;;;;5030763;28;20090;-58
2023/07/09 05:13:09;;;;;;;3.33;2.47;;;31.70;19.80;;;;;;5051602;28;20080;-59
2023/07/09 05:15:34;;;;;;;4.50;2.05;;;32.20;20.20;;;;;;5030868;28;20033;-57
2023/07/09 05:18:00;;;;;;;2.33;2.10;;;32.60;19.30;;;;;;5051354;28;20029;-59
2023/07/09 05:20:25;;;;;;;2.58;2.20;;;33.00;18.40;;;;;;5030863;28;20434;-59
2023/07/09 05:22:51;;;;;;;3.78;2.80;;;33.10;16.10;;;;;;5051337;28;20067;-58
2023/07/09 05:25:17;;;;;;;3.35;2.17;;;32.40;15.10;;;;;;5030490;28;20065;-59
2023/07/09 05:27:43;;;;;;;2.88;2.30;;;32.70;14.90;;;;;;5049851;28;20103;-58
2023/07/09 05:30:09;;;;;;;2.83;2.38;;;33.30;14.30;;;;;;5040013;28;20045;-59
2023/07/09 05:32:36;;;;;;;2.40;2.08;;;33.50;13.20;;;;;;5032157;28;20037;-59
2023/07/09 05:35:02;;;;;;;3.03;2.20;;;33.80;12.90;;;;;;5035528;28;20033;-58
2023/07/09 05:37:28;;;;;;;2.58;2.03;;;34.10;11.90;;;;;;5050637;28;20407;-58
2023/07/09 05:39:53;;;;;;;2.35;2.15;;;34.70;11.30;;;;;;5030380;28;20080;-59
2023/07/09 05:42:18;;;;;;;2.35;2.13;;;35.10;10.50;;;;;;5050746;28;20072;-58
2023/07/09 05:44:44;;;;;;;2.00;1.80;;;35.30;9.60;;;;;;5030492;28;20040;-58
2023/07/09 05:47:09;;;;;;;3.08;2.15;;;35.60;9.10;;;;;;5050618;28;20037;-58
2023/07/09 05:49:35;;;;;;;4.07;1.98;;;35.60;8.60;;;;;;5040158;28;20491;-58
2023/07/09 05:52:01;;;;;;;3.05;2.13;;;35.90;8.30;;;;;;5032035;28;20432;-59
2023/07/09 05:54:26;;;;;;;2.42;2.20;;;36.30;7.70;;;;;;5048602;28;20519;-58
2023/07/09 05:56:52;;;;;;;2.28;2.08;;;36.70;7.30;;;;;;5031815;28;20025;-59
2023/07/09 05:59:17;;;;;;;2.08;1.77;;;37.10;6.70;;;;;;5048526;28;20404;-58
2023/07/09 06:01:42;;;;;;;2.05;1.85;;;37.50;6.20;;;;;;5031934;28;20193;-58
2023/07/09 06:04:08;;;;;;;3.22;2.05;;;38.10;5.70;;;;;;5029652;28;20108;-58
2023/07/09 06:06:33;;;;;;;2.28;1.90;;;38.50;5.20;;;;;;5030574;28;20032;-59
2023/07/09 06:08:59;;;;;;;2.95;1.70;;;38.80;4.80;;;;;;5050628;28;20107;-59
2023/07/09 06:11:24;;;;;;;2.42;2.03;;;39.00;4.40;;;;;;5030169;28;20044;-59
2023/07/09 06:13:50;;;;;;;2.20;2.00;;;39.40;4.10;;;;;;5050710;28;20033;-59
2023/07/09 06:16:15;;;;;;;3.25;2.05;;;39.40;3.80;;;;;;5036620;28;20079;-59
2023/07/09 06:18:41;;;;;;;4.05;2.20;;;39.40;2.60;;;;;;5050265;28;20037;-58
2023/07/09 06:21:09;;;;;;;3.72;2.30;;;39.90;2.50;;;;;;5043673;28;20120;-59
2023/07/09 06:23:34;;;;;;;1.98;1.77;;;40.00;2.10;;;;;;5031250;28;20033;-59
2023/07/09 06:26:00;;;;;;;4.55;2.00;;;40.00;1.80;;;;;;5048306;28;20036;-59
2023/07/09 06:28:28;;;;;;;2.78;2.35;;;39.70;1.70;;;;;;5051003;28;20116;-59
2023/07/09 06:30:54;;;;;;;2.15;1.92;;;39.70;1.30;;;;;;5029174;28;20033;-58
2023/07/09 06:33:20;;;;;;;2.55;2.22;;;40.30;1.20;;;;;;5031039;28;20599;-52
2023/07/09 06:35:50;;;;;;;2.65;2.28;;;40.30;1.00;;;;;;5045812;28;20021;-60
2023/07/09 06:38:16;;;;;;;2.58;2.15;;;40.70;1.00;;;;;;5031190;28;20021;-54
2023/07/09 06:40:41;;;;;;;2.65;2.15;;;40.50;1.00;;;;;;5046104;28;20059;-55
2023/07/09 06:43:08;;;;;;;2.85;2.10;;;40.50;1.00;;;;;;5030974;28;20056;-54
2023/07/09 06:45:34;;;;;;;2.03;1.83;;;40.80;1.00;;;;;;5047293;28;20032;-56
2023/07/09 06:48:00;;;;;;;3.25;2.50;;;41.00;1.00;;;;;;5030853;28;20025;-54
2023/07/09 06:50:25;;;;;;;3.05;2.17;;;40.50;1.00;;;;;;5050074;28;20029;-54
2023/07/09 06:52:51;;;;;;;2.92;2.60;;;40.60;1.00;;;;;;5028714;28;20052;-51
2023/07/09 06:55:17;;;;;;;2.13;1.92;;;40.50;1.00;;;;;;5049935;28;20037;-54
2023/07/09 06:57:42;;;;;;;2.33;2.00;;;40.80;1.00;;;;;;5029067;28;20025;-55
2023/07/09 07:00:08;;;;;;;3.03;2.17;;;41.30;1.00;;;;;;5049751;28;20423;-53
2023/07/09 07:02:34;;;;;;;2.88;2.30;;;41.70;1.00;;;;;;5029314;28;20125;-50
2023/07/09 07:05:00;;;;;;;4.15;2.22;;;41.50;1.00;;;;;;5020172;28;20104;-52
2023/07/09 07:07:25;;;;;;;2.03;1.83;;;40.90;1.00;;;;;;5029593;28;20033;-52
2023/07/09 07:09:51;;;;;;;3.20;2.10;;;41.30;1.00;;;;;;5035848;28;20029;-54
2023/07/09 07:12:27;;;;;;;2.75;2.20;;;41.80;1.00;;;;;;5039862;28;20033;-50
2023/07/09 07:14:54;;;;;;;2.47;2.25;;;42.10;1.00;;;;;;5026620;28;20045;-55
2023/07/09 07:17:20;;;;;;;2.50;2.30;;;42.10;1.00;;;;;;5047491;28;20041;-55
2023/07/09 07:19:46;;;;;;;3.38;2.33;;;41.60;1.00;;;;;;5026612;28;20036;-55
2023/07/09 07:22:11;;;;;;;2.53;2.20;;;41.40;1.00;;;;;;5041507;28;20124;-56
2023/07/09 07:24:37;;;;;;;4.70;2.13;;;41.90;1.00;;;;;;5026855;28;20068;-53
2023/07/09 07:27:03;;;;;;;3.97;2.33;;;42.60;1.00;;;;;;5047036;28;20033;-53
2023/07/09 07:29:29;;;;;;;3.75;2.67;;;43.10;1.00;;;;;;5030466;28;20090;-54
2023/07/09 07:31:54;;;;;;;2.30;2.10;;;43.20;1.00;;;;;;5048024;28;20094;-51
2023/07/09 07:34:20;;;;;;;2.53;2.00;;;43.30;1.00;;;;;;5026822;28;20069;-54
2023/07/09 07:36:46;;;;;;;2.72;2.00;;;43.20;1.00;;;;;;5032659;28;20041;-54
2023/07/09 07:39:12;;;;;;;4.47;2.50;;;43.60;1.00;;;;;;5014281;28;20821;-54
2023/07/09 07:41:37;;;;;;;2.33;1.90;;;43.60;1.00;;;;;;5033849;28;20037;-55
2023/07/09 07:44:04;;;;;;;3.53;2.17;;;43.80;1.00;;;;;;5035442;28;20038;-52
2023/07/09 07:46:32;;;;;;;2.72;2.50;;;43.10;1.00;;;;;;5048540;28;20382;-53
2023/07/09 07:48:57;;;;;;;3.85;2.38;;;42.80;1.00;;;;;;5028327;28;20033;-51
2023/07/09 07:51:23;;;;;;;2.67;2.03;;;43.20;1.00;;;;;;5049458;28;20428;-53
2023/07/09 07:53:48;;;;;;;2.00;1.90;;;43.60;1.00;;;;;;5022209;28;20026;-52
2023/07/09 07:56:14;;;;;;;3.58;2.10;;;43.40;1.00;;;;;;5010354;28;20790;-53
2023/07/09 07:58:40;;;;;;;2.53;2.20;;;43.50;1.00;;;;;;5043324;28;20063;-53
2023/07/09 08:01:06;;;;;;;2.38;2.13;;;42.80;1.00;;;;;;5024534;28;20022;-53
2023/07/09 08:03:31;;;;;;;3.42;2.10;;;42.80;1.00;;;;;;5028980;28;20513;-55
2023/07/09 08:05:57;;;;;;;2.40;1.98;;;42.70;1.00;;;;;;5027842;28;20064;-53
2023/07/09 08:08:22;;;;;;;2.35;2.13;;;42.70;1.00;;;;;;5028996;28;20054;-55
2023/07/09 08:10:50;;;;;;;4.07;2.45;;;43.50;1.00;;;;;;5047796;28;20519;-55
2023/07/09 08:13:16;;;;;;;3.05;1.95;;;43.10;1.00;;;;;;5009357;28;20038;-53
2023/07/09 08:15:42;;;;;;;2.38;2.17;;;43.20;1.00;;;;;;5047357;28;20435;-53
2023/07/09 08:18:07;;;;;;;2.92;2.20;;;43.40;1.00;;;;;;5027433;28;20025;-53
2023/07/09 08:20:33;;;;;;;2.40;2.20;;;42.50;1.00;;;;;;5033892;28;20397;-56
2023/07/09 08:22:59;;;;;;;2.40;2.20;;;41.70;1.00;;;;;;5026772;28;20112;-56
2023/07/09 08:25:25;;;;;;;3.80;2.08;;;41.40;1.00;;;;;;5046517;28;20115;-56
2023/07/09 08:27:50;;;;;;;2.40;2.15;;;41.70;1.00;;;;;;5027398;28;20029;-56
2023/07/09 08:30:16;;;;;;;2.55;2.10;;;41.50;1.00;;;;;;5036695;28;20049;-53
2023/07/09 08:32:41;;;;;;;2.90;2.58;;;41.90;1.00;;;;;;5026427;28;20421;-55
2023/07/09 08:35:10;;;;;;;4.28;2.42;;;41.60;1.00;;;;;;5046394;28;20031;-54
2023/07/09 08:37:35;;;;;;;3.47;2.30;;;40.20;1.00;;;;;;5026978;28;20033;-56
2023/07/09 08:40:01;;;;;;;2.60;2.40;;;39.50;1.00;;;;;;5047619;28;20416;-53
2023/07/09 08:42:43;;;;;;;2.33;2.10;;;39.10;1.00;;;;;;5030123;28;20060;-54
2023/07/09 08:45:46;;;;;;;2.45;2.25;;;39.30;1.00;;;;;;5012810;28;20042;-55
2023/07/09 08:48:33;;;;;;;4.45;2.53;;;38.00;1.00;;;;;;5033303;28;20556;-54
2023/07/09 08:51:13;;;;;;;2.65;2.40;;;37.20;1.00;;;;;;5012726;28;20038;-53
2023/07/09 08:53:47;;;;;;;2.13;1.75;;;36.90;1.00;;;;;;5049525;28;20033;-56
2023/07/09 08:56:14;;;;;;;3.35;2.70;;;36.80;1.00;;;;;;5012753;28;20026;-53
2023/07/09 08:58:42;;;;;;;3.80;2.40;;;36.10;1.00;;;;;;5029161;28;20029;-53
2023/07/09 09:01:20;;;;;;;2.35;2.08;;;35.80;1.00;;;;;;5051632;28;20439;-55
2023/07/09 09:04:02;;;;;;;4.00;2.63;;;35.70;1.00;;;;;;5012404;28;20029;-53
2023/07/09 09:06:31;;;;;;;4.25;2.95;;;35.90;1.00;;;;;;5011962;28;20032;-55
2023/07/09 09:09:28;;;;;;;2.53;2.30;;;35.70;1.00;;;;;;5021554;28;20493;-55
2023/07/09 09:12:12;;;;;;;2.67;2.13;;;35.70;1.00;;;;;;5015845;28;20041;-49
2023/07/09 09:14:43;;;;;;;2.03;1.83;;;35.30;1.30;;;;;;5020771;28;20038;-53
2023/07/09 09:17:13;;;;;;;4.30;2.58;;;35.50;1.30;;;;;;5022533;28;20136;-53
2023/07/09 09:19:45;;;;;;;3.20;2.53;;;35.60;1.20;;;;;;5033351;28;20072;-53
2023/07/09 09:22:14;;;;;;;2.28;2.08;;;35.80;1.00;;;;;;5028179;28;20574;-54
2023/07/09 09:25:02;;;;;;;3.40;2.55;;;36.00;1.00;;;;;;5029622;28;20038;-54
2023/07/09 09:27:27;;;;;;;3.03;2.22;;;36.20;1.00;;;;;;5033639;28;20120;-53
2023/07/09 09:29:53;;;;;;;2.83;2.47;;;36.20;1.00;;;;;;5040488;28;20124;-54
2023/07/09 09:32:22;;;;;;;2.58;2.35;;;35.80;1.00;;;;;;5038427;28;20083;-55
2023/07/09 09:34:47;;;;;;;2.60;2.10;;;35.80;1.00;;;;;;5029286;28;20041;-55
2023/07/09 09:37:25;;;;;;;2.50;2.00;;;35.80;1.00;;;;;;5035166;28;20645;-55
2023/07/09 09:39:51;;;;;;;4.20;2.42;;;35.90;1.00;;;;;;5012175;28;20120;-53
2023/07/09 09:42:16;;;;;;;2.47;2.28;;;35.70;1.00;;;;;;5035394;28;20806;-53
2023/07/09 09:44:46;;;;;;;2.53;1.83;;;35.20;1.00;;;;;;5048417;28;20036;-54
2023/07/09 09:47:13;;;;;;;2.00;1.80;;;35.30;1.00;;;;;;5027822;28;20101;-52
2023/07/09 09:49:40;;;;;;;4.30;2.47;;;35.60;1.00;;;;;;5028998;28;20030;-54
2023/07/09 09:52:14;;;;;;;2.53;2.30;;;34.90;1.00;;;;;;5042289;28;20565;-54
2023/07/09 09:54:44;;;;;;;2.20;2.00;;;34.50;1.00;;;;;;5007479;28;20037;-53
2023/07/09 09:57:22;;;;;;;3.25;2.22;;;34.50;1.00;;;;;;5045641;28;20033;-55
2023/07/09 09:59:48;;;;;;;2.55;2.28;;;34.80;1.00;;;;;;5026655;28;20674;-55
2023/07/09 10:02:19;;;;;;;2.67;2.38;;;35.00;1.00;;;;;;5026840;28;20046;-51
2023/07/09 10:04:46;;;;;;;5.13;2.33;;;34.70;1.00;;;;;;5044667;28;20588;-53
2023/07/09 10:07:39;;;;;;;3.47;2.90;;;34.10;1.00;;;;;;5026591;28;20108;-50
2023/07/09 10:10:14;;;;;;;3.17;2.60;;;33.60;1.00;;;;;;5018033;28;20126;-49
2023/07/09 10:12:52;;;;;;;3.00;2.78;;;33.30;1.00;;;;;;5021556;28;20113;-55
2023/07/09 10:15:46;;;;;;;4.78;2.80;;;33.30;1.00;;;;;;5017703;28;20508;-53
2023/07/09 10:18:22;;;;;;;2.50;2.25;;;33.30;1.00;;;;;;5026672;28;20105;-53
2023/07/09 10:21:18;;;;;;;3.47;2.72;;;33.30;1.00;;;;;;5024974;28;20465;-51
2023/07/09 10:24:13;;;;;;;6.90;3.00;;;33.00;1.50;;;;;;5006468;28;20040;-53
2023/07/09 10:26:46;;;;;;;4.20;3.33;;;32.40;1.40;;;;;;5014176;28;20143;-50
2023/07/09 10:29:37;;;;;;;4.25;3.40;;;32.30;1.60;;;;;;5031371;28;20040;-52
2023/07/09 10:32:31;;;;;;;24.80;21.25;;;32.00;2.40;;;;;;5035869;28;20029;-52
2023/07/09 10:35:32;;;;;;;10.98;8.10;;;32.00;2.80;;;;;;5022632;28;20022;-53
2023/07/09 10:38:28;;;;;;;8.80;7.82;;;32.00;2.40;;;;;;5008834;28;20030;-53
2023/07/09 10:40:57;;;;;;;9.50;8.45;;;32.00;2.80;;;;;;5047598;28;20102;-54
2023/07/09 10:43:38;;;;;;;7.35;5.15;;;31.90;2.10;;;;;;5043010;28;20524;-54
2023/07/09 10:46:18;;;;;;;6.82;6.18;;;31.90;2.50;;;;;;5021601;28;20088;-51
2023/07/09 10:48:47;;;;;;;7.00;5.00;;;31.40;2.80;;;;;;5027300;28;20117;-49
2023/07/09 10:51:38;;;;;;;40.50;33.47;;;31.30;2.70;;;;;;5028668;28;20532;-49
2023/07/09 10:54:19;;;;;;;11.25;10.10;;;31.40;2.90;;;;;;5019259;28;20033;-54
2023/07/09 10:56:50;;;;;;;7.00;4.88;;;31.40;3.00;;;;;;5026459;28;20033;-51
2023/07/09 10:59:40;;;;;;;4.90;3.95;;;31.20;2.30;;;;;;5019806;28;20370;-52
2023/07/09 11:02:21;;;;;;;3.80;3.40;;;31.00;2.50;;;;;;5026995;28;20039;-51
2023/07/09 11:04:57;;;;;;;5.05;3.42;;;30.90;2.40;;;;;;5018289;28;20565;-50
2023/07/09 11:07:31;;;;;;;3.85;3.05;;;30.90;3.00;;;;;;5027499;28;20030;-50
2023/07/09 11:10:01;;;;;;;4.05;3.58;;;30.90;3.10;;;;;;5019524;28;20044;-51
2023/07/09 11:12:33;;;;;;;8.65;6.55;;;30.90;3.00;;;;;;5026222;28;20397;-53
2023/07/09 11:15:07;;;;;;;4.95;4.38;;;31.00;2.80;;;;;;5026073;28;20057;-51
2023/07/09 11:17:34;;;;;;;6.68;4.15;;;31.30;2.70;;;;;;5025650;28;20076;-53
2023/07/09 11:20:07;;;;;;;8.15;3.70;;;31.40;2.70;;;;;;5026282;28;20041;-53
2023/07/09 11:22:39;;;;;;;3.83;3.03;;;31.20;2.90;;;;;;5026130;28;20044;-51
2023/07/09 11:25:11;;;;;;;4.78;3.20;;;31.20;2.80;;;;;;5048511;28;20581;-52
2023/07/09 11:27:55;;;;;;;3.70;3.10;;;31.30;3.00;;;;;;5015721;28;20029;-53
2023/07/09 11:30:28;;;;;;;3.13;2.55;;;31.10;3.70;;;;;;5024181;28;20444;-52
2023/07/09 11:32:58;;;;;;;4.63;2.60;;;31.10;4.30;;;;;;5031096;28;20056;-48
2023/07/09 11:35:29;;;;;;;3.70;3.13;;;31.10;3.70;;;;;;5030160;28;20091;-51
2023/07/09 11:37:55;;;;;;;6.20;3.67;;;31.10;3.30;;;;;;5015588;28;20045;-55
2023/07/09 11:40:23;;;;;;;3.58;3.15;;;30.90;2.90;;;;;;5030089;28;20030;-52
2023/07/09 11:42:59;;;;;;;4.75;3.50;;;30.80;3.40;;;;;;5030110;28;20033;-51
2023/07/09 11:45:32;;;;;;;3.10;2.80;;;30.70;3.60;;;;;;5046187;28;20049;-47
2023/07/09 11:48:03;;;;;;;7.70;3.47;;;30.60;3.30;;;;;;5016326;28;20098;-48
2023/07/09 11:50:43;;;;;;;3.60;3.28;;;30.50;3.30;;;;;;5007132;28;20049;-52
2023/07/09 11:53:22;;;;;;;3.10;2.63;;;30.50;4.00;;;;;;5018843;28;20198;-47
2023/07/09 11:55:47;;;;;;;4.38;3.55;;;30.60;3.60;;;;;;5020862;28;20254;-52
2023/07/09 11:58:17;;;;;;;4.57;3.47;;;30.50;4.00;;;;;;5019937;28;20144;-52
2023/07/09 12:00:56;;;;;;;4.32;2.90;;;30.50;4.00;;;;;;5006714;28;20038;-51
2023/07/09 12:03:29;;;;;;;3.90;3.42;;;30.60;3.90;;;;;;5029595;28;20148;-54
2023/07/09 12:05:59;;;;;;;5.75;3.30;;;30.60;4.30;;;;;;5045419;28;20059;-47
2023/07/09 12:08:34;;;;;;;3.72;3.30;;;30.50;4.00;;;;;;5024427;28;20080;-54
2023/07/09 12:11:00;;;;;;;3.65;3.05;;;30.40;3.40;;;;;;5007041;28;20037;-53
2023/07/09 12:13:25;;;;;;;4.57;3.03;;;30.50;3.50;;;;;;5027915;28;20788;-51
2023/07/09 12:15:52;;;;;;;3.78;3.22;;;30.50;3.40;;;;;;5034794;28;20040;-55
2023/07/09 12:18:17;;;;;;;4.55;2.90;;;30.60;4.60;;;;;;5015599;28;20025;-51
2023/07/09 12:20:52;;;;;;;4.28;3.58;;;30.60;4.40;;;;;;5042150;28;20664;-51
2023/07/09 12:23:30;;;;;;;7.47;3.80;;;30.40;4.10;;;;;;5014045;28;20026;-56
2023/07/09 12:26:00;;;;;;;3.95;3.15;;;30.40;4.20;;;;;;5023960;28;20037;-53
2023/07/09 12:28:28;;;;;;;3.40;2.80;;;30.40;4.60;;;;;;5029255;28;20128;-53
2023/07/09 12:30:54;;;;;;;6.18;2.90;;;30.40;4.00;;;;;;5028515;28;20057;-52
2023/07/09 12:33:23;;;;;;;2.90;2.60;;;30.40;4.50;;;;;;5029530;28;20106;-52
2023/07/09 12:35:58;;;;;;;5.05;2.83;;;30.40;3.90;;;;;;5028349;28;20039;-53
2023/07/09 12:38:26;;;;;;;4.20;3.33;;;30.40;4.00;;;;;;5006767;28;20030;-58
2023/07/09 12:40:53;;;;;;;4.43;3.67;;;30.40;4.20;;;;;;5031628;28;20065;-59
2023/07/09 12:43:25;;;;;;;4.20;3.03;;;30.30;3.90;;;;;;5029696;28;20038;-58
2023/07/09 12:45:54;;;;;;;5.90;3.85;;;30.40;3.90;;;;;;5007042;28;20038;-57
2023/07/09 12:48:26;;;;;;;3.50;3.00;;;30.50;3.30;;;;;;5024200;28;20038;-58
2023/07/09 12:50:57;;;;;;;6.60;2.90;;;30.60;3.40;;;;;;5045379;28;20063;-59
2023/07/09 12:53:26;;;;;;;4.68;3.40;;;30.70;3.40;;;;;;5024501;28;20117;-57
2023/07/09 12:55:56;;;;;;;5.13;3.28;;;30.70;3.70;;;;;;5029494;28;20029;-58
2023/07/09 12:58:28;;;;;;;6.47;3.53;;;30.70;2.50;;;;;;5027553;28;20034;-58
2023/07/09 13:00:55;;;;;;;5.28;3.70;;;30.60;3.10;;;;;;5015735;28;20037;-58
2023/07/09 13:03:27;;;;;;;4.45;3.83;;;30.50;3.00;;;;;;5028356;28;20119;-57
2023/07/09 13:05:59;;;;;;;5.10;3.55;;;30.50;3.00;;;;;;5016990;28;20049;-58